Airport View

Enter ICAO identifier to see the current METAR for that AWOS.

KFNL for example

KFOA 301035Z AUTO 00000KT 10SM CLR 12/12 A3008

30 Jul 2014 11:05

Frequency: 120.175

Phone: 618-662-8355

Other Area AWOS: KOLY - KFWC - KSLO - K1H2

TAF KEVV 300520Z 3006/3106 00000KT P6SM SKC FM301500 26005KT P6SM SCT040 BKN250 FM310100 00000KT P6SM SKC